createdAt,value
2018-09-27T00:00:20.970Z,92.26
2018-09-27T00:01:20.967Z,92.26
2018-09-27T00:02:20.965Z,91.98
2018-09-27T00:03:20.962Z,91.60
2018-09-27T00:04:20.959Z,91.31
2018-09-27T00:05:20.957Z,90.73
2018-09-27T00:06:20.952Z,91.02
2018-09-27T00:07:20.950Z,90.73
2018-09-27T00:08:20.950Z,91.02
2018-09-27T00:09:20.947Z,91.50
2018-09-27T00:10:20.949Z,90.73
2018-09-27T00:11:20.940Z,91.88
2018-09-27T00:12:20.938Z,93.12
2018-09-27T00:13:20.939Z,92.55
2018-09-27T00:14:20.931Z,92.65
2018-09-27T00:15:20.929Z,92.83
2018-09-27T00:16:20.927Z,92.74
2018-09-27T00:17:20.924Z,92.36
2018-09-27T00:18:20.921Z,92.65
2018-09-27T00:19:20.918Z,93.02
2018-09-27T00:20:20.916Z,93.70
2018-09-27T00:21:20.914Z,93.31
2018-09-27T00:22:20.909Z,92.93
2018-09-27T00:23:20.910Z,93.22
2018-09-27T00:24:20.906Z,93.22
2018-09-27T00:25:20.903Z,93.22
2018-09-27T00:26:20.899Z,93.12
2018-09-27T00:27:20.896Z,93.41
2018-09-27T00:28:20.894Z,93.12
2018-09-27T00:29:20.891Z,93.51
2018-09-27T00:30:20.891Z,93.41
2018-09-27T00:31:20.885Z,93.70
2018-09-27T00:32:20.883Z,93.60
2018-09-27T00:33:20.880Z,93.51
2018-09-27T00:34:20.878Z,93.41
2018-09-27T00:35:20.874Z,93.41
2018-09-27T00:36:20.870Z,93.02
2018-09-27T00:37:20.870Z,93.02
2018-09-27T00:38:20.865Z,93.02
2018-09-27T00:39:20.861Z,93.55
2018-09-27T00:40:20.861Z,93.46
2018-09-27T00:41:20.856Z,93.41
2018-09-27T00:42:20.853Z,92.98
2018-09-27T00:43:20.849Z,93.08
2018-09-27T00:44:20.847Z,93.55
2018-09-27T00:45:20.843Z,93.55
2018-09-27T00:46:20.839Z,93.55
2018-09-27T00:47:20.837Z,92.98
2018-09-27T00:48:20.835Z,92.98
2018-09-27T00:49:20.834Z,93.27
2018-09-27T00:50:20.827Z,93.27
2018-09-27T00:51:20.824Z,93.36
2018-09-27T00:52:20.823Z,93.17
2018-09-27T00:53:20.820Z,92.79
2018-09-27T00:54:20.814Z,92.60
2018-09-27T00:55:20.814Z,91.64
2018-09-27T00:56:20.809Z,91.46
2018-09-27T00:57:20.809Z,91.55
2018-09-27T00:58:20.802Z,91.55
2018-09-27T00:59:20.800Z,91.27
2018-09-27T01:00:20.796Z,91.46
2018-09-27T01:01:20.795Z,90.59
2018-09-27T01:02:20.789Z,90.45
2018-09-27T01:03:20.787Z,90.64
2018-09-27T01:04:20.783Z,90.64
2018-09-27T01:05:20.780Z,90.55
2018-09-27T01:06:20.777Z,90.17
2018-09-27T01:07:20.774Z,90.26
2018-09-27T01:08:20.772Z,90.84
2018-09-27T01:09:20.766Z,90.55
2018-09-27T01:10:20.762Z,89.79
2018-09-27T01:11:20.759Z,89.50
2018-09-27T01:12:20.758Z,89.31
2018-09-27T01:13:20.754Z,89.60
2018-09-27T01:14:20.749Z,89.22
2018-09-27T01:15:20.747Z,88.74
2018-09-27T01:16:20.743Z,88.45
2018-09-27T01:17:20.741Z,88.55
2018-09-27T01:18:20.736Z,88.36
2018-09-27T01:19:20.732Z,88.07
2018-09-27T01:20:20.729Z,88.45
2018-09-27T01:21:20.727Z,88.26
2018-09-27T01:22:20.723Z,88.36
2018-09-27T01:23:20.720Z,87.69
2018-09-27T01:24:20.717Z,88.45
2018-09-27T01:25:20.714Z,87.79
2018-09-27T01:26:20.708Z,87.60
2018-09-27T01:27:20.705Z,87.69
2018-09-27T01:28:20.701Z,88.07
2018-09-27T01:29:20.698Z,88.12
2018-09-27T01:30:20.695Z,88.22
2018-09-27T01:31:20.695Z,88.31
2018-09-27T01:32:20.692Z,88.45
2018-09-27T01:33:20.685Z,88.41
2018-09-27T01:34:20.685Z,88.12
2018-09-27T01:35:20.677Z,88.07
2018-09-27T01:36:20.673Z,88.26
2018-09-27T01:37:20.671Z,88.22
2018-09-27T01:38:20.668Z,87.84
2018-09-27T01:39:20.664Z,87.93
2018-09-27T01:40:20.659Z,88.51
2018-09-27T01:41:20.656Z,88.60
2018-09-27T01:42:20.652Z,88.41
2018-09-27T01:43:20.648Z,88.60
2018-09-27T01:44:20.647Z,88.79
2018-09-27T01:45:20.641Z,88.70
2018-09-27T01:46:20.637Z,88.70
2018-09-27T01:47:20.639Z,88.31
2018-09-27T01:48:20.631Z,88.60
2018-09-27T01:49:20.628Z,88.31
2018-09-27T01:50:20.622Z,88.41
2018-09-27T01:51:20.619Z,87.46
2018-09-27T01:52:20.616Z,88.41
2018-09-27T01:53:20.612Z,88.70
2018-09-27T01:54:20.608Z,88.98
2018-09-27T01:55:20.604Z,88.70
2018-09-27T01:56:20.601Z,88.98
2018-09-27T01:57:20.596Z,88.70
2018-09-27T01:58:20.593Z,89.75
2018-09-27T01:59:20.588Z,89.65
2018-09-27T02:00:20.587Z,89.50
2018-09-27T02:01:20.583Z,89.40
2018-09-27T02:02:20.578Z,89.31
2018-09-27T02:03:20.574Z,89.98
2018-09-27T02:04:20.573Z,89.89
2018-09-27T02:05:20.567Z,89.69
2018-09-27T02:06:20.563Z,89.98
2018-09-27T02:07:20.561Z,90.17
2018-09-27T02:08:20.555Z,89.89
2018-09-27T02:09:20.552Z,90.17
2018-09-27T02:10:20.549Z,90.36
2018-09-27T02:11:20.545Z,89.98
2018-09-27T02:12:20.540Z,89.40
2018-09-27T02:13:20.538Z,89.60
2018-09-27T02:14:20.534Z,89.22
2018-09-27T02:15:20.527Z,89.60
2018-09-27T02:16:20.525Z,89.79
2018-09-27T02:17:20.522Z,89.50
2018-09-27T02:18:20.518Z,89.40
2018-09-27T02:19:20.514Z,89.60
2018-09-27T02:20:20.512Z,88.84
2018-09-27T02:21:20.508Z,89.98
2018-09-27T02:22:20.502Z,91.31
2018-09-27T02:23:20.499Z,90.84
2018-09-27T02:24:20.496Z,90.55
2018-09-27T02:25:20.491Z,90.08
2018-09-27T02:26:20.486Z,90.36
2018-09-27T02:27:20.484Z,90.26
2018-09-27T02:28:20.483Z,90.26
2018-09-27T02:29:20.476Z,90.55
2018-09-27T02:30:20.473Z,90.17
2018-09-27T02:31:20.480Z,91.03
2018-09-27T02:32:20.467Z,90.84
2018-09-27T02:33:20.464Z,90.74
2018-09-27T02:34:20.457Z,91.03
2018-09-27T02:35:20.457Z,90.45
2018-09-27T02:36:20.451Z,90.64
2018-09-27T02:37:20.447Z,90.45
2018-09-27T02:38:20.443Z,90.59
2018-09-27T02:39:20.438Z,91.07
2018-09-27T02:40:20.436Z,91.03
2018-09-27T02:41:20.431Z,91.07
2018-09-27T02:42:20.427Z,91.46
2018-09-27T02:43:20.422Z,91.55
2018-09-27T02:44:20.420Z,91.17
2018-09-27T02:45:20.417Z,91.64
2018-09-27T02:46:20.412Z,91.55
2018-09-27T02:47:20.419Z,90.88
2018-09-27T02:48:20.405Z,91.07
2018-09-27T02:49:20.401Z,91.07
2018-09-27T02:50:20.396Z,91.07
2018-09-27T02:51:20.393Z,91.74
2018-09-27T02:52:20.390Z,91.07
2018-09-27T02:53:20.387Z,91.36
2018-09-27T02:54:20.383Z,91.64
2018-09-27T02:55:20.378Z,91.74
2018-09-27T02:56:20.375Z,91.64
2018-09-27T02:57:20.373Z,91.55
2018-09-27T02:58:20.369Z,90.88
2018-09-27T02:59:20.365Z,91.36
2018-09-27T03:00:20.362Z,91.64
2018-09-27T03:01:20.357Z,91.64
2018-09-27T03:02:20.354Z,91.27
2018-09-27T03:03:20.351Z,91.36
2018-09-27T03:04:20.347Z,91.36
2018-09-27T03:05:20.343Z,91.27
2018-09-27T03:06:20.339Z,91.46
2018-09-27T03:07:20.337Z,91.07
2018-09-27T03:08:20.333Z,91.17
2018-09-27T03:09:20.329Z,91.46
2018-09-27T03:10:20.328Z,91.55
2018-09-27T03:11:20.321Z,91.55
2018-09-27T03:12:20.318Z,91.46
2018-09-27T03:13:20.317Z,91.55
2018-09-27T03:14:20.316Z,91.36
2018-09-27T03:15:20.309Z,91.36
2018-09-27T03:16:20.305Z,91.50
2018-09-27T03:17:20.301Z,91.27
2018-09-27T03:18:20.298Z,91.88
2018-09-27T03:19:20.296Z,91.60
2018-09-27T03:20:20.291Z,91.50
2018-09-27T03:21:20.290Z,91.50
2018-09-27T03:22:20.286Z,91.31
2018-09-27T03:23:20.282Z,91.50
2018-09-27T03:24:20.279Z,91.78
2018-09-27T03:25:20.275Z,91.69
2018-09-27T03:26:20.271Z,91.50
2018-09-27T03:27:20.268Z,91.50
2018-09-27T03:28:20.266Z,91.78
2018-09-27T03:29:20.264Z,91.21
2018-09-27T03:30:20.258Z,90.93
2018-09-27T03:31:20.256Z,91.31
2018-09-27T03:32:20.252Z,91.78
2018-09-27T03:33:20.249Z,90.83
2018-09-27T03:34:20.245Z,91.12
2018-09-27T03:35:20.242Z,90.83
2018-09-27T03:36:20.239Z,91.12
2018-09-27T03:37:20.237Z,92.07
2018-09-27T03:38:20.236Z,91.50
2018-09-27T03:39:20.230Z,90.36
2018-09-27T03:40:20.277Z,91.02
2018-09-27T03:41:20.224Z,92.07
2018-09-27T03:42:20.220Z,91.88
2018-09-27T03:43:20.217Z,91.74
2018-09-27T03:44:20.214Z,91.88
2018-09-27T03:45:20.213Z,91.69
2018-09-27T03:46:20.209Z,91.93
2018-09-27T03:47:20.206Z,91.64
2018-09-27T03:48:20.211Z,91.55
2018-09-27T03:49:20.200Z,90.97
2018-09-27T03:50:20.194Z,91.64
2018-09-27T03:51:20.193Z,91.55
2018-09-27T03:52:20.189Z,91.36
2018-09-27T03:53:20.188Z,91.55
2018-09-27T03:54:20.183Z,91.74
2018-09-27T03:55:20.181Z,91.83
2018-09-27T03:56:20.178Z,91.36
2018-09-27T03:57:20.176Z,91.93
2018-09-27T03:58:20.171Z,92.41
2018-09-27T03:59:20.168Z,90.97
2018-09-27T04:00:20.167Z,91.16
2018-09-27T04:01:20.165Z,91.36
2018-09-27T04:02:20.160Z,90.69
2018-09-27T04:03:20.201Z,91.36
2018-09-27T04:04:20.154Z,91.26
2018-09-27T04:05:20.152Z,91.55
2018-09-27T04:06:20.148Z,91.83
2018-09-27T04:07:20.145Z,91.16
2018-09-27T04:08:20.141Z,91.55
2018-09-27T04:09:20.141Z,91.93
2018-09-27T04:10:20.137Z,91.55
2018-09-27T04:11:20.135Z,91.45
2018-09-27T04:12:20.131Z,90.21
2018-09-27T04:13:20.129Z,91.36
2018-09-27T04:14:20.125Z,91.74
2018-09-27T04:15:20.123Z,91.83
2018-09-27T04:16:20.120Z,91.55
2018-09-27T04:17:20.118Z,91.74
2018-09-27T04:18:20.114Z,91.83
2018-09-27T04:19:20.111Z,91.74
2018-09-27T04:20:20.110Z,91.16
2018-09-27T04:21:20.106Z,90.59
2018-09-27T04:22:20.130Z,90.59
2018-09-27T04:23:20.101Z,90.92
2018-09-27T04:24:20.101Z,90.69
2018-09-27T04:25:20.098Z,90.73
2018-09-27T04:26:20.093Z,91.50
2018-09-27T04:27:20.090Z,91.16
2018-09-27T04:28:20.087Z,91.36
2018-09-27T04:29:20.087Z,91.74
2018-09-27T04:30:20.082Z,91.83
2018-09-27T04:31:20.079Z,91.64
2018-09-27T04:32:20.135Z,92.12
2018-09-27T04:33:20.074Z,91.93
2018-09-27T04:34:20.069Z,91.78
2018-09-27T04:35:20.069Z,91.59
2018-09-27T04:36:20.066Z,91.36
2018-09-27T04:37:20.063Z,91.88
2018-09-27T04:38:20.060Z,91.64
2018-09-27T04:39:20.059Z,92.12
2018-09-27T04:40:20.055Z,91.45
2018-09-27T04:41:20.054Z,91.02
2018-09-27T04:42:20.049Z,91.50
2018-09-27T04:43:20.049Z,91.59
2018-09-27T04:44:20.046Z,91.69
2018-09-27T04:45:20.042Z,90.83
2018-09-27T04:46:20.041Z,91.30
2018-09-27T04:47:20.040Z,91.78
2018-09-27T04:48:20.035Z,91.78
2018-09-27T04:49:20.035Z,92.07
2018-09-27T04:50:20.031Z,91.97
2018-09-27T04:51:20.028Z,92.16
2018-09-27T04:52:20.028Z,92.16
2018-09-27T04:53:20.024Z,92.07
2018-09-27T04:54:20.051Z,92.07
2018-09-27T04:55:20.018Z,92.16
2018-09-27T04:56:20.016Z,92.36
2018-09-27T04:57:20.014Z,91.97
2018-09-27T04:58:20.010Z,91.69
2018-09-27T04:59:20.009Z,91.50
2018-09-27T05:00:20.007Z,91.30
2018-09-27T05:01:20.002Z,91.50
2018-09-27T05:02:20.001Z,91.11
2018-09-27T05:03:19.997Z,91.50
2018-09-27T05:04:20.001Z,91.50
2018-09-27T05:05:19.994Z,90.92
2018-09-27T05:06:20.017Z,91.02
2018-09-27T05:07:19.989Z,91.21
2018-09-27T05:08:19.986Z,90.73
2018-09-27T05:09:19.984Z,90.92
2018-09-27T05:10:19.985Z,90.83
2018-09-27T05:11:19.977Z,90.73
2018-09-27T05:12:19.977Z,90.92
2018-09-27T05:13:19.975Z,90.73
2018-09-27T05:14:19.971Z,90.73
2018-09-27T05:15:19.969Z,90.73
2018-09-27T05:16:19.967Z,90.64
2018-09-27T05:17:19.965Z,90.54
2018-09-27T05:18:19.962Z,90.35
2018-09-27T05:19:19.960Z,90.25
2018-09-27T05:20:19.966Z,90.64
2018-09-27T05:21:19.956Z,90.16
2018-09-27T05:22:19.950Z,90.35
2018-09-27T05:23:19.949Z,90.45
2018-09-27T05:24:19.947Z,90.45
2018-09-27T05:25:19.946Z,90.45
2018-09-27T05:26:19.940Z,90.83
2018-09-27T05:27:20.013Z,90.25
2018-09-27T05:28:19.937Z,90.35
2018-09-27T05:29:19.936Z,90.54
2018-09-27T05:30:19.933Z,90.92
2018-09-27T05:31:19.933Z,90.83
2018-09-27T05:32:19.928Z,91.02
2018-09-27T05:33:19.925Z,90.73
2018-09-27T05:34:19.922Z,90.83
2018-09-27T05:35:19.920Z,90.83
2018-09-27T05:36:19.918Z,90.73
2018-09-27T05:37:19.916Z,90.88
2018-09-27T05:38:19.912Z,91.40
2018-09-27T05:39:19.909Z,90.78
2018-09-27T05:40:19.911Z,90.64
2018-09-27T05:41:19.905Z,91.26
2018-09-27T05:42:19.902Z,90.88
2018-09-27T05:43:19.904Z,90.97
2018-09-27T05:44:19.897Z,91.36
2018-09-27T05:45:19.899Z,90.97
2018-09-27T05:46:19.891Z,91.26
2018-09-27T05:47:19.889Z,91.45
2018-09-27T05:48:19.887Z,91.45
2018-09-27T05:49:19.884Z,91.93
2018-09-27T05:50:19.881Z,91.55
2018-09-27T05:51:19.880Z,91.93
2018-09-27T05:52:19.878Z,92.21
2018-09-27T05:53:19.875Z,92.02
2018-09-27T05:54:19.870Z,92.02
2018-09-27T05:55:19.869Z,92.21
2018-09-27T05:56:19.866Z,92.21
2018-09-27T05:57:19.866Z,92.21
2018-09-27T05:58:19.862Z,92.12
2018-09-27T05:59:19.859Z,92.12
2018-09-27T06:00:19.855Z,92.07
2018-09-27T06:01:19.854Z,92.31
2018-09-27T06:02:19.850Z,92.02
2018-09-27T06:03:19.847Z,91.83
2018-09-27T06:04:19.853Z,92.02
2018-09-27T06:05:19.843Z,91.93
2018-09-27T06:06:19.838Z,91.88
2018-09-27T06:07:19.835Z,92.41
2018-09-27T06:08:19.833Z,91.93
2018-09-27T06:09:19.832Z,91.98
2018-09-27T06:10:19.829Z,91.88
2018-09-27T06:11:19.853Z,91.98
2018-09-27T06:12:19.825Z,91.78
2018-09-27T06:13:19.825Z,91.98
2018-09-27T06:14:19.816Z,92.17
2018-09-27T06:15:19.813Z,92.07
2018-09-27T06:16:19.811Z,91.88
2018-09-27T06:17:19.809Z,92.17
2018-09-27T06:18:19.806Z,92.46
2018-09-27T06:19:19.863Z,92.55
2018-09-27T06:20:19.802Z,92.46
2018-09-27T06:21:19.800Z,92.07
2018-09-27T06:22:19.795Z,91.88
2018-09-27T06:23:19.792Z,92.07
2018-09-27T06:24:19.794Z,91.78
2018-09-27T06:25:19.787Z,92.36
2018-09-27T06:26:19.783Z,91.50
2018-09-27T06:27:19.779Z,91.93
2018-09-27T06:28:19.778Z,91.93
2018-09-27T06:29:19.776Z,91.93
2018-09-27T06:30:19.772Z,91.55
2018-09-27T06:31:19.768Z,91.55
2018-09-27T06:32:19.770Z,91.55
2018-09-27T06:33:19.761Z,90.78
2018-09-27T06:34:19.759Z,91.26
2018-09-27T06:35:19.758Z,91.45
2018-09-27T06:36:19.755Z,91.26
2018-09-27T06:37:19.753Z,91.36
2018-09-27T06:38:19.750Z,90.97
2018-09-27T06:39:19.747Z,90.78
2018-09-27T06:40:19.744Z,91.16
2018-09-27T06:41:19.796Z,91.36
2018-09-27T06:42:19.737Z,90.97
2018-09-27T06:43:19.754Z,91.36
2018-09-27T06:44:19.732Z,91.45
2018-09-27T06:45:19.730Z,91.36
2018-09-27T06:46:19.727Z,91.26
2018-09-27T06:47:19.725Z,91.36
2018-09-27T06:48:19.742Z,91.45
2018-09-27T06:49:19.718Z,91.07
2018-09-27T06:50:19.715Z,91.36
2018-09-27T06:51:19.712Z,91.11
2018-09-27T06:52:19.711Z,90.78
2018-09-27T06:53:19.707Z,90.50
2018-09-27T06:54:19.704Z,90.54
2018-09-27T06:55:19.860Z,90.59
2018-09-27T06:56:19.702Z,90.97
2018-09-27T06:57:19.696Z,90.64
2018-09-27T06:58:19.694Z,90.92
2018-09-27T06:59:19.694Z,90.92
2018-09-27T07:00:19.688Z,90.83
2018-09-27T07:01:19.686Z,90.73
2018-09-27T07:02:19.682Z,90.06
2018-09-27T07:03:19.680Z,89.39
2018-09-27T07:04:19.678Z,89.20
2018-09-27T07:05:19.675Z,89.01
2018-09-27T07:06:19.672Z,89.11
2018-09-27T07:07:19.724Z,89.01
2018-09-27T07:08:19.666Z,88.34
2018-09-27T07:09:19.666Z,88.63
2018-09-27T07:10:19.661Z,88.25
2018-09-27T07:11:19.657Z,88.25
2018-09-27T07:12:19.862Z,88.87
2018-09-27T07:13:19.654Z,88.58
2018-09-27T07:14:19.651Z,89.15
2018-09-27T07:15:19.648Z,89.06
2018-09-27T07:16:19.646Z,88.20
2018-09-27T07:17:19.651Z,87.82
2018-09-27T07:18:19.639Z,87.34
2018-09-27T07:19:19.636Z,86.96
2018-09-27T07:20:19.678Z,87.05
2018-09-27T07:21:19.634Z,86.76
2018-09-27T07:22:19.629Z,86.96
2018-09-27T07:23:19.628Z,86.76
2018-09-27T07:24:19.628Z,86.86
2018-09-27T07:25:19.700Z,87.05
2018-09-27T07:26:19.628Z,86.10
2018-09-27T07:27:19.616Z,86.10
2018-09-27T07:28:19.614Z,85.33
2018-09-27T07:29:19.611Z,85.18
2018-09-27T07:30:19.610Z,85.33
2018-09-27T07:31:19.608Z,85.57
2018-09-27T07:32:19.604Z,85.75
2018-09-27T07:33:19.603Z,85.18
2018-09-27T07:34:19.599Z,84.61
2018-09-27T07:35:19.597Z,84.80
2018-09-27T07:36:19.594Z,84.80
2018-09-27T07:37:19.592Z,84.61
2018-09-27T07:38:19.589Z,84.32
2018-09-27T07:39:19.588Z,84.32
2018-09-27T07:40:19.584Z,84.13
2018-09-27T07:41:19.583Z,84.99
2018-09-27T07:42:19.581Z,84.99
2018-09-27T07:43:19.576Z,84.32
2018-09-27T07:44:19.575Z,84.32
2018-09-27T07:45:19.573Z,83.75
2018-09-27T07:46:19.570Z,83.89
2018-09-27T07:47:19.569Z,83.98
2018-09-27T07:48:19.568Z,84.17
2018-09-27T07:49:19.566Z,83.60
2018-09-27T07:50:19.560Z,83.03
2018-09-27T07:51:19.561Z,83.22
2018-09-27T07:52:19.557Z,83.50
2018-09-27T07:53:19.556Z,82.45
2018-09-27T07:54:19.654Z,82.07
2018-09-27T07:55:19.549Z,82.26
2018-09-27T07:56:19.547Z,82.83
2018-09-27T07:57:19.546Z,82.26
2018-09-27T07:58:19.543Z,82.45
2018-09-27T07:59:19.543Z,82.17
2018-09-27T08:00:19.538Z,82.30
2018-09-27T08:01:19.540Z,81.49
2018-09-27T08:02:19.534Z,81.82
2018-09-27T08:03:19.532Z,81.54
2018-09-27T08:04:19.595Z,81.63
2018-09-27T08:05:19.551Z,80.77
2018-09-27T08:06:19.525Z,81.05
2018-09-27T08:07:19.523Z,81.15
2018-09-27T08:08:19.522Z,81.34
2018-09-27T08:09:19.520Z,81.63
2018-09-27T08:10:19.518Z,80.67
2018-09-27T08:11:19.653Z,80.00
2018-09-27T08:12:19.514Z,80.19
2018-09-27T08:13:19.512Z,81.05
2018-09-27T08:14:19.510Z,80.62
2018-09-27T08:15:19.509Z,80.10
2018-09-27T08:16:19.506Z,79.72
2018-09-27T08:17:19.570Z,80.62
2018-09-27T08:18:19.501Z,80.43
2018-09-27T08:19:19.500Z,79.66
2018-09-27T08:20:19.525Z,79.18
2018-09-27T08:21:19.688Z,79.47
2018-09-27T08:22:19.496Z,79.28
2018-09-27T08:23:19.536Z,79.75
2018-09-27T08:24:19.491Z,80.24
2018-09-27T08:25:19.491Z,80.24
2018-09-27T08:26:19.488Z,80.04
2018-09-27T08:27:19.486Z,79.28
2018-09-27T08:28:19.484Z,79.37
2018-09-27T08:29:19.484Z,79.66
2018-09-27T08:30:19.482Z,79.95
2018-09-27T08:31:19.479Z,80.14
2018-09-27T08:32:19.478Z,80.04
2018-09-27T08:33:19.480Z,80.24
2018-09-27T08:34:19.474Z,79.95
2018-09-27T08:35:19.473Z,80.08
2018-09-27T08:36:19.470Z,79.60
2018-09-27T08:37:19.471Z,79.13
2018-09-27T08:38:19.538Z,79.13
2018-09-27T08:39:19.467Z,78.84
2018-09-27T08:40:19.466Z,79.22
2018-09-27T08:41:19.463Z,79.32
2018-09-27T08:42:19.462Z,79.22
2018-09-27T08:43:19.466Z,77.97
2018-09-27T08:44:19.459Z,77.53
2018-09-27T08:45:19.602Z,77.40
2018-09-27T08:46:19.456Z,77.69
2018-09-27T08:47:19.456Z,77.78
2018-09-27T08:48:19.455Z,76.73
2018-09-27T08:49:19.453Z,77.69
2018-09-27T08:50:19.451Z,77.53
2018-09-27T08:51:19.451Z,76.96
2018-09-27T08:52:19.449Z,77.34
2018-09-27T08:53:19.448Z,77.15
2018-09-27T08:54:19.447Z,77.25
2018-09-27T08:55:19.488Z,76.96
2018-09-27T08:56:19.483Z,77.82
2018-09-27T08:57:19.443Z,77.06
2018-09-27T08:58:19.442Z,77.19
2018-09-27T08:59:19.441Z,76.42
2018-09-27T09:00:19.442Z,74.93
2018-09-27T09:01:19.440Z,72.95
2018-09-27T09:02:19.443Z,69.72
2018-09-27T09:03:19.453Z,66.71
2018-09-27T09:04:19.440Z,64.18
2018-09-27T09:05:19.442Z,62.29
2018-09-27T09:06:19.442Z,61.35
2018-09-27T09:07:19.445Z,59.30
2018-09-27T09:08:19.448Z,57.65
2018-09-27T09:09:19.451Z,57.39
2018-09-27T09:10:19.454Z,56.14
2018-09-27T09:11:19.459Z,56.04
2018-09-27T09:12:19.464Z,56.01
2018-09-27T09:13:19.468Z,56.59
2018-09-27T09:14:19.473Z,55.94
2018-09-27T09:15:19.480Z,55.27
2018-09-27T09:16:19.484Z,54.43
2018-09-27T09:17:19.491Z,53.59
2018-09-27T09:18:19.497Z,53.39
2018-09-27T09:19:19.504Z,52.91
2018-09-27T09:20:19.512Z,53.99
2018-09-27T09:21:19.520Z,54.69
2018-09-27T09:22:19.527Z,55.70
2018-09-27T09:23:19.535Z,56.09
2018-09-27T09:24:19.545Z,56.27
2018-09-27T09:25:20.366Z,56.47
2018-09-27T09:26:19.561Z,56.24
2018-09-27T09:27:19.571Z,54.69
2018-09-27T09:28:19.580Z,53.53
2018-09-27T09:29:19.638Z,54.05
2018-09-27T09:30:19.600Z,53.23
2018-09-27T09:31:19.608Z,52.33
2018-09-27T09:32:19.617Z,53.37
2018-09-27T09:33:19.631Z,53.56
2018-09-27T09:34:19.636Z,53.56
2018-09-27T09:35:19.650Z,53.56
2018-09-27T09:36:19.658Z,53.30
2018-09-27T09:37:19.669Z,53.42
2018-09-27T09:38:19.677Z,52.75
2018-09-27T09:39:19.688Z,52.55
2018-09-27T09:40:19.698Z,51.49
2018-09-27T09:41:19.709Z,52.17
2018-09-27T09:42:19.720Z,52.45
2018-09-27T09:43:19.729Z,52.31
2018-09-27T09:44:19.741Z,53.01
2018-09-27T09:45:19.755Z,52.62
2018-09-27T09:46:19.764Z,53.23
2018-09-27T09:47:19.775Z,53.13
2018-09-27T09:48:19.785Z,51.23
2018-09-27T09:49:19.798Z,50.91
2018-09-27T09:50:19.813Z,50.79
2018-09-27T09:51:19.819Z,51.37
2018-09-27T09:52:19.830Z,50.43
2018-09-27T09:53:19.842Z,50.35
2018-09-27T09:54:19.852Z,49.17
2018-09-27T09:55:19.867Z,49.10
2018-09-27T09:56:19.876Z,49.80
2018-09-27T09:57:19.888Z,48.76
2018-09-27T09:58:19.897Z,46.87
2018-09-27T09:59:19.912Z,46.70
2018-09-27T10:00:19.922Z,46.02
2018-09-27T10:01:19.936Z,46.70
2018-09-27T10:02:20.026Z,46.39
2018-09-27T10:03:19.959Z,46.70
2018-09-27T10:04:19.969Z,46.60
2018-09-27T10:05:19.981Z,46.12
2018-09-27T10:06:19.992Z,45.13
2018-09-27T10:07:20.004Z,45.83
2018-09-27T10:08:20.018Z,45.44
2018-09-27T10:09:20.029Z,46.83
2018-09-27T10:10:20.041Z,47.33
2018-09-27T10:11:20.054Z,48.54
2018-09-27T10:12:20.066Z,46.41
2018-09-27T10:13:20.080Z,45.90
2018-09-27T10:14:20.090Z,46.66
2018-09-27T10:15:20.104Z,45.42
2018-09-27T10:16:20.116Z,46.19
2018-09-27T10:17:20.129Z,47.41
2018-09-27T10:18:20.142Z,47.69
2018-09-27T10:19:20.154Z,48.08
2018-09-27T10:20:20.166Z,47.16
2018-09-27T10:21:20.180Z,48.57
2018-09-27T10:22:20.192Z,47.11
2018-09-27T10:23:20.204Z,47.24
2018-09-27T10:24:20.217Z,47.89
2018-09-27T10:25:20.230Z,46.87
2018-09-27T10:26:20.242Z,46.67
2018-09-27T10:27:20.275Z,46.66
2018-09-27T10:28:20.269Z,46.08
2018-09-27T10:29:20.280Z,47.29
2018-09-27T10:30:20.290Z,49.75
2018-09-27T10:31:20.304Z,51.48
2018-09-27T10:32:20.318Z,51.48
2018-09-27T10:33:20.328Z,51.39
2018-09-27T10:34:20.378Z,52.16
2018-09-27T10:35:20.348Z,52.64
2018-09-27T10:36:20.359Z,52.42
2018-09-27T10:37:20.371Z,52.61
2018-09-27T10:38:20.378Z,53.29
2018-09-27T10:39:20.389Z,53.48
2018-09-27T10:40:20.398Z,53.94
2018-09-27T10:41:20.409Z,54.03
2018-09-27T10:42:20.417Z,52.97
2018-09-27T10:43:20.427Z,52.56
2018-09-27T10:44:20.435Z,53.05
2018-09-27T10:45:20.443Z,53.14
2018-09-27T10:46:20.451Z,53.23
2018-09-27T10:47:20.460Z,53.07
2018-09-27T10:48:20.467Z,53.14
2018-09-27T10:49:20.475Z,52.47
2018-09-27T10:50:20.480Z,53.14
2018-09-27T10:51:20.554Z,52.95
2018-09-27T10:52:20.495Z,52.95
2018-09-27T10:53:20.503Z,52.69
2018-09-27T10:54:20.509Z,52.69
2018-09-27T10:55:20.515Z,51.46
2018-09-27T10:56:20.525Z,50.85
2018-09-27T10:57:20.641Z,50.66
2018-09-27T10:58:20.533Z,51.62
2018-09-27T10:59:20.539Z,52.01
2018-09-27T11:00:20.546Z,53.27
2018-09-27T11:01:20.551Z,53.17
2018-09-27T11:02:20.557Z,53.84
2018-09-27T11:03:20.562Z,53.84
2018-09-27T11:04:20.569Z,52.97
2018-09-27T11:05:20.574Z,53.27
2018-09-27T11:06:20.578Z,51.82
2018-09-27T11:07:20.585Z,52.20
2018-09-27T11:08:20.589Z,51.98
2018-09-27T11:09:20.594Z,51.89
2018-09-27T11:10:20.598Z,51.70
2018-09-27T11:11:20.617Z,51.82
2018-09-27T11:12:20.611Z,50.37
2018-09-27T11:13:20.614Z,51.43
2018-09-27T11:14:20.619Z,52.40
2018-09-27T11:15:20.625Z,51.92
2018-09-27T11:16:20.627Z,51.62
2018-09-27T11:17:20.633Z,52.11
2018-09-27T11:18:20.636Z,51.43
2018-09-27T11:19:20.643Z,50.76
2018-09-27T11:20:20.646Z,51.46
2018-09-27T11:21:20.652Z,49.70
2018-09-27T11:22:20.655Z,49.89
2018-09-27T11:23:20.660Z,51.05
2018-09-27T11:24:20.665Z,50.76
2018-09-27T11:25:20.667Z,51.43
2018-09-27T11:26:20.673Z,50.66
2018-09-27T11:27:20.675Z,50.18
2018-09-27T11:28:20.680Z,49.99
2018-09-27T11:29:20.684Z,50.09
2018-09-27T11:30:20.690Z,50.69
2018-09-27T11:31:20.693Z,50.21
2018-09-27T11:32:20.697Z,50.11
2018-09-27T11:33:20.701Z,48.76
2018-09-27T11:34:20.704Z,48.47
2018-09-27T11:35:20.707Z,48.28
2018-09-27T11:36:20.762Z,47.49
2018-09-27T11:37:20.717Z,48.08
2018-09-27T11:38:20.720Z,48.44
2018-09-27T11:39:20.723Z,49.05
2018-09-27T11:40:20.728Z,48.38
2018-09-27T11:41:20.730Z,47.99
2018-09-27T11:42:20.746Z,48.38
2018-09-27T11:43:20.738Z,47.80
2018-09-27T11:44:20.744Z,47.31
2018-09-27T11:45:20.746Z,47.29
2018-09-27T11:46:20.748Z,47.03
2018-09-27T11:47:20.754Z,47.22
2018-09-27T11:48:20.756Z,47.67
2018-09-27T11:49:20.837Z,48.28
2018-09-27T11:50:20.782Z,48.66
2018-09-27T11:51:20.767Z,49.43
2018-09-27T11:52:20.773Z,50.01
2018-09-27T11:53:20.775Z,48.18
2018-09-27T11:54:20.777Z,48.38
2018-09-27T11:55:20.789Z,47.31
2018-09-27T11:56:20.785Z,47.41
2018-09-27T11:57:20.789Z,48.86
2018-09-27T11:58:20.789Z,48.18
2018-09-27T11:59:20.795Z,46.73
2018-09-27T12:00:20.798Z,46.25
2018-09-27T12:01:20.802Z,46.18
2018-09-27T12:02:20.808Z,46.18
2018-09-27T12:03:20.808Z,46.35
2018-09-27T12:04:20.814Z,46.25
2018-09-27T12:05:20.817Z,47.44
2018-09-27T12:06:20.818Z,48.08
2018-09-27T12:07:20.890Z,47.12
2018-09-27T12:08:20.825Z,47.70
2018-09-27T12:09:20.830Z,46.35
2018-09-27T12:10:20.833Z,46.25
2018-09-27T12:11:20.835Z,46.73
2018-09-27T12:12:20.839Z,47.41
2018-09-27T12:13:20.884Z,46.15
2018-09-27T12:14:20.845Z,43.75
2018-09-27T12:15:20.849Z,44.06
2018-09-27T12:16:20.856Z,43.48
2018-09-27T12:17:20.856Z,45.31
2018-09-27T12:18:20.859Z,44.83
2018-09-27T12:19:20.862Z,43.94
2018-09-27T12:20:20.866Z,44.64
2018-09-27T12:21:20.868Z,44.64
2018-09-27T12:22:20.872Z,45.89
2018-09-27T12:23:20.875Z,45.21
2018-09-27T12:24:20.878Z,43.58
2018-09-27T12:25:20.882Z,42.13
2018-09-27T12:26:20.883Z,42.13
2018-09-27T12:27:20.888Z,42.32
2018-09-27T12:28:20.891Z,43.19
2018-09-27T12:29:20.894Z,43.87
2018-09-27T12:30:20.896Z,43.58
2018-09-27T12:31:20.900Z,43.02
2018-09-27T12:32:20.903Z,42.54
2018-09-27T12:33:20.909Z,43.31
2018-09-27T12:34:20.910Z,43.21
2018-09-27T12:35:20.918Z,43.60
2018-09-27T12:36:20.917Z,41.96
2018-09-27T12:37:20.919Z,40.70
2018-09-27T12:38:20.930Z,40.42
2018-09-27T12:39:20.927Z,40.03
2018-09-27T12:40:20.929Z,39.84
2018-09-27T12:41:20.933Z,40.32
2018-09-27T12:42:20.941Z,40.22
2018-09-27T12:43:20.939Z,41.09
2018-09-27T12:44:20.941Z,40.42
2018-09-27T12:45:20.950Z,39.94
2018-09-27T12:46:20.957Z,39.62
2018-09-27T12:47:20.952Z,39.62
2018-09-27T12:48:20.986Z,40.03
2018-09-27T12:49:20.957Z,39.84
2018-09-27T12:50:20.960Z,40.03
2018-09-27T12:51:21.063Z,39.94
2018-09-27T12:52:21.208Z,38.87